sensor_id;sensor_type;location;lat;lon;timestamp;temperature;humidity
17986;DHT22;9118;48.122;11.546;2022-09-09T00:00:43;16.80;99.90
17986;DHT22;9118;48.122;11.546;2022-09-09T00:03:24;16.70;99.90
17986;DHT22;9118;48.122;11.546;2022-09-09T00:06:02;18.00;99.90
17986;DHT22;9118;48.122;11.546;2022-09-09T00:08:39;16.80;99.90
17986;DHT22;9118;48.122;11.546;2022-09-09T00:11:09;17.00;99.90
17986;DHT22;9118;48.122;11.546;2022-09-09T00:13:43;17.00;99.90
17986;DHT22;9118;48.122;11.546;2022-09-09T00:16:19;16.80;99.90
17986;DHT22;9118;48.122;11.546;2022-09-09T00:18:55;16.80;99.90
17986;DHT22;9118;48.122;11.546;2022-09-09T00:21:30;16.90;99.90
17986;DHT22;9118;48.122;11.546;2022-09-09T00:24:11;16.60;99.90
17986;DHT22;9118;48.122;11.546;2022-09-09T00:26:48;16.80;99.90
17986;DHT22;9118;48.122;11.546;2022-09-09T00:29:24;16.80;99.90
17986;DHT22;9118;48.122;11.546;2022-09-09T00:32:12;16.80;99.90
17986;DHT22;9118;48.122;11.546;2022-09-09T00:34:44;17.20;99.90
17986;DHT22;9118;48.122;11.546;2022-09-09T00:37:11;17.20;99.90
17986;DHT22;9118;48.122;11.546;2022-09-09T00:39:42;16.80;99.90
17986;DHT22;9118;48.122;11.546;2022-09-09T00:45:12;16.60;99.90
17986;DHT22;9118;48.122;11.546;2022-09-09T00:47:48;16.80;99.90
17986;DHT22;9118;48.122;11.546;2022-09-09T00:50:35;16.70;99.90
17986;DHT22;9118;48.122;11.546;2022-09-09T00:53:19;17.40;99.90
17986;DHT22;9118;48.122;11.546;2022-09-09T00:55:57;16.90;99.90
17986;DHT22;9118;48.122;11.546;2022-09-09T00:58:26;16.90;99.90
17986;DHT22;9118;48.122;11.546;2022-09-09T01:01:03;16.70;99.90
17986;DHT22;9118;48.122;11.546;2022-09-09T01:03:35;16.70;99.90
17986;DHT22;9118;48.122;11.546;2022-09-09T01:06:21;16.60;99.90
17986;DHT22;9118;48.122;11.546;2022-09-09T01:09:02;16.70;99.90
17986;DHT22;9118;48.122;11.546;2022-09-09T01:11:41;17.90;99.90
17986;DHT22;9118;48.122;11.546;2022-09-09T01:14:22;16.80;99.90
17986;DHT22;9118;48.122;11.546;2022-09-09T01:16:57;16.80;99.90
17986;DHT22;9118;48.122;11.546;2022-09-09T01:19:39;16.70;99.90
17986;DHT22;9118;48.122;11.546;2022-09-09T01:22:18;16.90;99.90
17986;DHT22;9118;48.122;11.546;2022-09-09T01:25:08;17.00;99.90
17986;DHT22;9118;48.122;11.546;2022-09-09T01:27:42;17.40;99.90
17986;DHT22;9118;48.122;11.546;2022-09-09T01:30:11;16.70;99.90
17986;DHT22;9118;48.122;11.546;2022-09-09T01:32:42;16.70;99.90
17986;DHT22;9118;48.122;11.546;2022-09-09T01:35:12;16.70;99.90
17986;DHT22;9118;48.122;11.546;2022-09-09T01:37:40;16.70;99.90
17986;DHT22;9118;48.122;11.546;2022-09-09T01:40:08;16.70;99.90
17986;DHT22;9118;48.122;11.546;2022-09-09T01:42:35;16.70;99.90
17986;DHT22;9118;48.122;11.546;2022-09-09T01:45:10;17.20;99.90
17986;DHT22;9118;48.122;11.546;2022-09-09T01:47:37;16.70;99.90
17986;DHT22;9118;48.122;11.546;2022-09-09T01:50:05;16.30;99.90
17986;DHT22;9118;48.122;11.546;2022-09-09T01:52:36;16.50;99.90
17986;DHT22;9118;48.122;11.546;2022-09-09T01:55:05;16.50;99.90
17986;DHT22;9118;48.122;11.546;2022-09-09T01:57:38;16.50;99.90
17986;DHT22;9118;48.122;11.546;2022-09-09T02:00:11;16.60;99.90
17986;DHT22;9118;48.122;11.546;2022-09-09T02:02:44;16.50;99.90
17986;DHT22;9118;48.122;11.546;2022-09-09T02:05:21;16.50;99.90
17986;DHT22;9118;48.122;11.546;2022-09-09T02:07:59;16.50;99.90
17986;DHT22;9118;48.122;11.546;2022-09-09T02:10:31;16.40;99.90
17986;DHT22;9118;48.122;11.546;2022-09-09T02:13:04;16.40;99.90
17986;DHT22;9118;48.122;11.546;2022-09-09T02:15:39;16.30;99.90
17986;DHT22;9118;48.122;11.546;2022-09-09T02:18:12;16.50;99.90
17986;DHT22;9118;48.122;11.546;2022-09-09T02:20:43;16.30;99.90
17986;DHT22;9118;48.122;11.546;2022-09-09T02:23:12;16.40;99.90
17986;DHT22;9118;48.122;11.546;2022-09-09T02:25:44;16.30;99.90
17986;DHT22;9118;48.122;11.546;2022-09-09T02:28:18;16.50;99.90
17986;DHT22;9118;48.122;11.546;2022-09-09T02:30:50;17.10;99.90
17986;DHT22;9118;48.122;11.546;2022-09-09T02:33:21;16.40;99.90
17986;DHT22;9118;48.122;11.546;2022-09-09T02:35:51;16.60;99.90
17986;DHT22;9118;48.122;11.546;2022-09-09T02:38:21;16.50;99.90
17986;DHT22;9118;48.122;11.546;2022-09-09T02:40:50;16.40;99.90
17986;DHT22;9118;48.122;11.546;2022-09-09T02:43:17;16.50;99.90
17986;DHT22;9118;48.122;11.546;2022-09-09T02:45:50;16.60;99.90
17986;DHT22;9118;48.122;11.546;2022-09-09T02:48:24;16.50;99.90
17986;DHT22;9118;48.122;11.546;2022-09-09T02:50:58;16.70;99.90
17986;DHT22;9118;48.122;11.546;2022-09-09T02:53:34;16.30;99.90
17986;DHT22;9118;48.122;11.546;2022-09-09T02:56:09;16.20;99.90
17986;DHT22;9118;48.122;11.546;2022-09-09T02:58:40;16.30;99.90
17986;DHT22;9118;48.122;11.546;2022-09-09T03:01:10;16.10;99.90
17986;DHT22;9118;48.122;11.546;2022-09-09T03:03:37;16.20;99.90
17986;DHT22;9118;48.122;11.546;2022-09-09T03:06:05;16.10;99.90
17986;DHT22;9118;48.122;11.546;2022-09-09T03:08:32;15.70;99.90
17986;DHT22;9118;48.122;11.546;2022-09-09T03:10:59;16.20;99.90
17986;DHT22;9118;48.122;11.546;2022-09-09T03:13:27;16.00;99.90
17986;DHT22;9118;48.122;11.546;2022-09-09T03:15:54;16.50;99.90
17986;DHT22;9118;48.122;11.546;2022-09-09T03:18:23;16.10;99.90
17986;DHT22;9118;48.122;11.546;2022-09-09T03:20:51;16.40;99.90
17986;DHT22;9118;48.122;11.546;2022-09-09T03:23:20;15.90;99.90
17986;DHT22;9118;48.122;11.546;2022-09-09T03:25:50;16.00;99.90
17986;DHT22;9118;48.122;11.546;2022-09-09T03:28:17;16.00;99.90
17986;DHT22;9118;48.122;11.546;2022-09-09T03:30:46;16.00;99.90
17986;DHT22;9118;48.122;11.546;2022-09-09T03:33:13;15.90;99.90
17986;DHT22;9118;48.122;11.546;2022-09-09T03:35:46;15.90;99.90
17986;DHT22;9118;48.122;11.546;2022-09-09T03:38:14;16.10;99.90
17986;DHT22;9118;48.122;11.546;2022-09-09T03:40:48;15.90;99.90
17986;DHT22;9118;48.122;11.546;2022-09-09T03:43:16;16.00;99.90
17986;DHT22;9118;48.122;11.546;2022-09-09T03:45:45;16.50;99.90
17986;DHT22;9118;48.122;11.546;2022-09-09T03:48:13;15.90;99.90
17986;DHT22;9118;48.122;11.546;2022-09-09T03:50:46;16.00;99.90
17986;DHT22;9118;48.122;11.546;2022-09-09T03:53:14;16.20;99.90
17986;DHT22;9118;48.122;11.546;2022-09-09T03:55:44;15.90;99.90
17986;DHT22;9118;48.122;11.546;2022-09-09T03:58:11;16.00;99.90
17986;DHT22;9118;48.122;11.546;2022-09-09T04:00:39;16.30;99.90
17986;DHT22;9118;48.122;11.546;2022-09-09T04:03:11;16.00;99.90
17986;DHT22;9118;48.122;11.546;2022-09-09T04:05:40;16.00;99.90
17986;DHT22;9118;48.122;11.546;2022-09-09T04:08:09;15.90;99.90
17986;DHT22;9118;48.122;11.546;2022-09-09T04:10:37;15.90;99.90
17986;DHT22;9118;48.122;11.546;2022-09-09T04:13:05;16.40;99.90
17986;DHT22;9118;48.122;11.546;2022-09-09T04:15:34;16.10;99.90
17986;DHT22;9118;48.122;11.546;2022-09-09T04:18:02;16.10;99.90
17986;DHT22;9118;48.122;11.546;2022-09-09T04:20:29;16.00;99.90
17986;DHT22;9118;48.122;11.546;2022-09-09T04:22:57;16.20;99.90
17986;DHT22;9118;48.122;11.546;2022-09-09T04:25:25;16.10;99.90
17986;DHT22;9118;48.122;11.546;2022-09-09T04:27:53;15.90;99.90
17986;DHT22;9118;48.122;11.546;2022-09-09T04:30:21;16.00;99.90
17986;DHT22;9118;48.122;11.546;2022-09-09T04:32:49;16.00;99.90
17986;DHT22;9118;48.122;11.546;2022-09-09T04:35:16;16.00;99.90
17986;DHT22;9118;48.122;11.546;2022-09-09T04:37:45;15.90;99.90
17986;DHT22;9118;48.122;11.546;2022-09-09T04:40:14;15.80;99.90
17986;DHT22;9118;48.122;11.546;2022-09-09T04:42:42;15.70;99.90
17986;DHT22;9118;48.122;11.546;2022-09-09T04:45:10;15.10;99.90
17986;DHT22;9118;48.122;11.546;2022-09-09T04:47:39;15.90;99.90
17986;DHT22;9118;48.122;11.546;2022-09-09T04:50:07;15.70;99.90
17986;DHT22;9118;48.122;11.546;2022-09-09T04:52:35;15.80;99.90
17986;DHT22;9118;48.122;11.546;2022-09-09T04:55:03;15.50;99.90
17986;DHT22;9118;48.122;11.546;2022-09-09T04:57:30;15.70;99.90
17986;DHT22;9118;48.122;11.546;2022-09-09T05:00:01;15.90;99.90
17986;DHT22;9118;48.122;11.546;2022-09-09T05:02:30;15.70;99.90
17986;DHT22;9118;48.122;11.546;2022-09-09T05:04:57;15.80;99.90
17986;DHT22;9118;48.122;11.546;2022-09-09T05:07:26;15.70;99.90
17986;DHT22;9118;48.122;11.546;2022-09-09T05:09:54;15.80;99.90
17986;DHT22;9118;48.122;11.546;2022-09-09T05:12:22;15.60;99.90
17986;DHT22;9118;48.122;11.546;2022-09-09T05:14:49;15.80;99.90
17986;DHT22;9118;48.122;11.546;2022-09-09T05:17:19;15.80;99.90
17986;DHT22;9118;48.122;11.546;2022-09-09T05:19:46;16.30;99.90
17986;DHT22;9118;48.122;11.546;2022-09-09T05:22:18;15.70;99.90
17986;DHT22;9118;48.122;11.546;2022-09-09T05:24:46;15.70;99.90
17986;DHT22;9118;48.122;11.546;2022-09-09T05:27:16;15.70;99.90
17986;DHT22;9118;48.122;11.546;2022-09-09T05:29:43;15.70;99.90
17986;DHT22;9118;48.122;11.546;2022-09-09T05:32:11;15.80;99.90
17986;DHT22;9118;48.122;11.546;2022-09-09T05:34:40;15.80;99.90
17986;DHT22;9118;48.122;11.546;2022-09-09T05:37:08;15.80;99.90
17986;DHT22;9118;48.122;11.546;2022-09-09T05:39:35;15.80;99.90
17986;DHT22;9118;48.122;11.546;2022-09-09T05:42:04;15.80;99.90
17986;DHT22;9118;48.122;11.546;2022-09-09T05:44:31;15.80;99.90
17986;DHT22;9118;48.122;11.546;2022-09-09T05:46:58;15.60;99.90
17986;DHT22;9118;48.122;11.546;2022-09-09T05:49:25;15.90;99.90
17986;DHT22;9118;48.122;11.546;2022-09-09T05:51:54;15.90;99.90
17986;DHT22;9118;48.122;11.546;2022-09-09T05:54:21;16.90;99.90
17986;DHT22;9118;48.122;11.546;2022-09-09T05:56:48;15.80;99.90
17986;DHT22;9118;48.122;11.546;2022-09-09T05:59:18;16.00;99.90
17986;DHT22;9118;48.122;11.546;2022-09-09T06:01:45;16.20;99.90
17986;DHT22;9118;48.122;11.546;2022-09-09T06:04:13;16.10;99.90
17986;DHT22;9118;48.122;11.546;2022-09-09T06:06:40;16.00;99.90
17986;DHT22;9118;48.122;11.546;2022-09-09T06:09:10;15.90;99.90
17986;DHT22;9118;48.122;11.546;2022-09-09T06:11:38;16.30;99.90
17986;DHT22;9118;48.122;11.546;2022-09-09T06:14:06;16.20;99.90
17986;DHT22;9118;48.122;11.546;2022-09-09T06:16:34;16.60;99.90
17986;DHT22;9118;48.122;11.546;2022-09-09T06:19:03;16.30;99.90
17986;DHT22;9118;48.122;11.546;2022-09-09T06:21:31;16.40;99.90
17986;DHT22;9118;48.122;11.546;2022-09-09T06:24:00;16.30;99.90
17986;DHT22;9118;48.122;11.546;2022-09-09T06:26:30;16.60;99.90
17986;DHT22;9118;48.122;11.546;2022-09-09T06:28:58;16.50;99.90
17986;DHT22;9118;48.122;11.546;2022-09-09T06:31:26;16.50;99.90
17986;DHT22;9118;48.122;11.546;2022-09-09T06:33:57;16.60;99.90
17986;DHT22;9118;48.122;11.546;2022-09-09T06:36:27;16.50;99.90
17986;DHT22;9118;48.122;11.546;2022-09-09T06:38:55;16.50;99.90
17986;DHT22;9118;48.122;11.546;2022-09-09T06:41:24;16.60;99.90
17986;DHT22;9118;48.122;11.546;2022-09-09T06:43:54;16.60;99.90
17986;DHT22;9118;48.122;11.546;2022-09-09T06:46:23;16.60;99.90
17986;DHT22;9118;48.122;11.546;2022-09-09T06:48:53;16.70;99.90
17986;DHT22;9118;48.122;11.546;2022-09-09T06:51:24;16.70;99.90
17986;DHT22;9118;48.122;11.546;2022-09-09T06:53:53;16.80;99.90
17986;DHT22;9118;48.122;11.546;2022-09-09T06:56:21;16.90;99.90
17986;DHT22;9118;48.122;11.546;2022-09-09T06:58:49;16.80;99.90
17986;DHT22;9118;48.122;11.546;2022-09-09T07:01:20;17.00;99.90
17986;DHT22;9118;48.122;11.546;2022-09-09T07:03:49;16.90;99.90
17986;DHT22;9118;48.122;11.546;2022-09-09T07:06:18;17.00;99.90
17986;DHT22;9118;48.122;11.546;2022-09-09T07:08:49;17.00;99.90
17986;DHT22;9118;48.122;11.546;2022-09-09T07:11:18;17.30;99.90
17986;DHT22;9118;48.122;11.546;2022-09-09T07:13:46;17.10;99.90
17986;DHT22;9118;48.122;11.546;2022-09-09T07:16:15;17.40;99.90
17986;DHT22;9118;48.122;11.546;2022-09-09T07:18:48;17.00;99.90
17986;DHT22;9118;48.122;11.546;2022-09-09T07:21:16;17.10;99.90
17986;DHT22;9118;48.122;11.546;2022-09-09T07:23:44;17.10;99.90
17986;DHT22;9118;48.122;11.546;2022-09-09T07:26:14;17.00;99.90
17986;DHT22;9118;48.122;11.546;2022-09-09T07:28:42;17.10;99.90
17986;DHT22;9118;48.122;11.546;2022-09-09T07:31:25;16.80;99.90
17986;DHT22;9118;48.122;11.546;2022-09-09T07:33:58;16.90;99.90
17986;DHT22;9118;48.122;11.546;2022-09-09T07:36:36;16.80;99.90
17986;DHT22;9118;48.122;11.546;2022-09-09T07:39:07;17.00;99.90
17986;DHT22;9118;48.122;11.546;2022-09-09T07:41:36;17.10;99.90
17986;DHT22;9118;48.122;11.546;2022-09-09T07:44:05;17.60;99.90
17986;DHT22;9118;48.122;11.546;2022-09-09T07:46:34;17.70;99.90
17986;DHT22;9118;48.122;11.546;2022-09-09T07:49:03;17.50;99.90
17986;DHT22;9118;48.122;11.546;2022-09-09T07:51:32;17.70;99.90
17986;DHT22;9118;48.122;11.546;2022-09-09T07:54:03;18.00;99.90
17986;DHT22;9118;48.122;11.546;2022-09-09T07:56:30;18.00;99.90
17986;DHT22;9118;48.122;11.546;2022-09-09T07:58:59;18.40;99.90
17986;DHT22;9118;48.122;11.546;2022-09-09T08:01:29;17.80;99.90
17986;DHT22;9118;48.122;11.546;2022-09-09T08:04:06;18.00;99.90
17986;DHT22;9118;48.122;11.546;2022-09-09T08:06:36;18.00;99.90
17986;DHT22;9118;48.122;11.546;2022-09-09T08:09:06;18.00;99.90
17986;DHT22;9118;48.122;11.546;2022-09-09T08:11:40;18.10;99.90
17986;DHT22;9118;48.122;11.546;2022-09-09T08:14:08;18.30;99.90
17986;DHT22;9118;48.122;11.546;2022-09-09T08:16:37;18.30;99.90
17986;DHT22;9118;48.122;11.546;2022-09-09T08:19:22;18.50;99.90
17986;DHT22;9118;48.122;11.546;2022-09-09T08:21:49;18.40;99.90
17986;DHT22;9118;48.122;11.546;2022-09-09T08:24:16;18.40;99.90
17986;DHT22;9118;48.122;11.546;2022-09-09T08:26:46;18.50;99.90
17986;DHT22;9118;48.122;11.546;2022-09-09T08:29:15;17.80;99.90
17986;DHT22;9118;48.122;11.546;2022-09-09T08:31:44;18.90;99.90
17986;DHT22;9118;48.122;11.546;2022-09-09T08:34:12;18.60;99.90
17986;DHT22;9118;48.122;11.546;2022-09-09T08:36:48;18.70;99.90
17986;DHT22;9118;48.122;11.546;2022-09-09T08:39:17;18.60;99.90
17986;DHT22;9118;48.122;11.546;2022-09-09T08:42:16;18.50;99.90
17986;DHT22;9118;48.122;11.546;2022-09-09T08:45:18;18.70;99.90
17986;DHT22;9118;48.122;11.546;2022-09-09T08:48:18;18.50;99.90
17986;DHT22;9118;48.122;11.546;2022-09-09T08:51:03;18.40;99.90
17986;DHT22;9118;48.122;11.546;2022-09-09T08:53:49;18.30;99.90
17986;DHT22;9118;48.122;11.546;2022-09-09T08:56:24;18.00;99.90
17986;DHT22;9118;48.122;11.546;2022-09-09T08:58:53;18.00;99.90
17986;DHT22;9118;48.122;11.546;2022-09-09T09:01:56;18.30;99.90
17986;DHT22;9118;48.122;11.546;2022-09-09T09:04:57;18.10;99.90
17986;DHT22;9118;48.122;11.546;2022-09-09T09:07:39;18.10;99.90
17986;DHT22;9118;48.122;11.546;2022-09-09T09:10:18;17.90;99.90
17986;DHT22;9118;48.122;11.546;2022-09-09T09:12:50;17.80;99.90
17986;DHT22;9118;48.122;11.546;2022-09-09T09:15:20;17.90;99.90
17986;DHT22;9118;48.122;11.546;2022-09-09T09:17:50;17.90;99.90
17986;DHT22;9118;48.122;11.546;2022-09-09T09:20:26;18.20;99.90
17986;DHT22;9118;48.122;11.546;2022-09-09T09:23:02;18.00;99.90
17986;DHT22;9118;48.122;11.546;2022-09-09T09:25:36;18.00;99.90
17986;DHT22;9118;48.122;11.546;2022-09-09T09:28:13;18.10;99.90
17986;DHT22;9118;48.122;11.546;2022-09-09T09:30:45;18.20;99.90
17986;DHT22;9118;48.122;11.546;2022-09-09T09:33:17;18.30;99.90
17986;DHT22;9118;48.122;11.546;2022-09-09T09:35:48;18.50;99.90
17986;DHT22;9118;48.122;11.546;2022-09-09T09:38:29;18.70;99.90
17986;DHT22;9118;48.122;11.546;2022-09-09T09:41:10;19.00;99.90
17986;DHT22;9118;48.122;11.546;2022-09-09T09:43:41;19.00;99.90
17986;DHT22;9118;48.122;11.546;2022-09-09T09:46:20;19.30;99.90
17986;DHT22;9118;48.122;11.546;2022-09-09T09:49:02;19.40;99.90
17986;DHT22;9118;48.122;11.546;2022-09-09T09:51:32;19.50;99.90
17986;DHT22;9118;48.122;11.546;2022-09-09T09:54:14;19.30;99.90
17986;DHT22;9118;48.122;11.546;2022-09-09T09:56:47;19.70;99.90
17986;DHT22;9118;48.122;11.546;2022-09-09T09:59:34;19.00;99.90
17986;DHT22;9118;48.122;11.546;2022-09-09T10:02:20;19.00;99.90
17986;DHT22;9118;48.122;11.546;2022-09-09T10:05:01;18.90;99.90
17986;DHT22;9118;48.122;11.546;2022-09-09T10:07:31;18.70;99.90
17986;DHT22;9118;48.122;11.546;2022-09-09T10:10:08;18.60;99.90
17986;DHT22;9118;48.122;11.546;2022-09-09T10:12:53;18.50;99.90
17986;DHT22;9118;48.122;11.546;2022-09-09T10:15:32;18.70;99.90
17986;DHT22;9118;48.122;11.546;2022-09-09T10:18:15;18.70;99.90
17986;DHT22;9118;48.122;11.546;2022-09-09T10:20:54;18.70;99.90
17986;DHT22;9118;48.122;11.546;2022-09-09T10:23:51;18.60;99.90
17986;DHT22;9118;48.122;11.546;2022-09-09T10:26:33;18.70;99.90
17986;DHT22;9118;48.122;11.546;2022-09-09T10:29:35;18.50;99.90
17986;DHT22;9118;48.122;11.546;2022-09-09T10:32:15;18.70;99.90
17986;DHT22;9118;48.122;11.546;2022-09-09T10:34:55;18.60;99.90
17986;DHT22;9118;48.122;11.546;2022-09-09T10:37:58;18.70;99.90
17986;DHT22;9118;48.122;11.546;2022-09-09T10:41:18;18.70;99.90
17986;DHT22;9118;48.122;11.546;2022-09-09T10:44:29;18.80;99.90
17986;DHT22;9118;48.122;11.546;2022-09-09T10:50:33;19.10;99.90
17986;DHT22;9118;48.122;11.546;2022-09-09T10:53:24;19.20;99.90
17986;DHT22;9118;48.122;11.546;2022-09-09T10:59:13;19.20;99.90
17986;DHT22;9118;48.122;11.546;2022-09-09T11:01:46;19.80;99.90
17986;DHT22;9118;48.122;11.546;2022-09-09T11:04:17;19.70;99.90
17986;DHT22;9118;48.122;11.546;2022-09-09T11:06:50;19.70;99.90
17986;DHT22;9118;48.122;11.546;2022-09-09T11:09:24;20.10;99.90
17986;DHT22;9118;48.122;11.546;2022-09-09T11:11:53;20.30;99.90
17986;DHT22;9118;48.122;11.546;2022-09-09T11:14:28;20.20;99.90
17986;DHT22;9118;48.122;11.546;2022-09-09T11:16:58;20.20;99.90
17986;DHT22;9118;48.122;11.546;2022-09-09T11:19:33;20.30;99.90
17986;DHT22;9118;48.122;11.546;2022-09-09T11:22:16;20.40;99.90
17986;DHT22;9118;48.122;11.546;2022-09-09T11:24:57;20.20;99.90
17986;DHT22;9118;48.122;11.546;2022-09-09T11:27:31;20.80;99.90
17986;DHT22;9118;48.122;11.546;2022-09-09T11:30:11;20.30;99.90
17986;DHT22;9118;48.122;11.546;2022-09-09T11:33:04;21.20;99.90
17986;DHT22;9118;48.122;11.546;2022-09-09T11:35:44;20.40;99.90
17986;DHT22;9118;48.122;11.546;2022-09-09T11:38:32;21.00;99.90
17986;DHT22;9118;48.122;11.546;2022-09-09T11:44:35;20.80;99.90
17986;DHT22;9118;48.122;11.546;2022-09-09T11:47:19;20.80;99.90
17986;DHT22;9118;48.122;11.546;2022-09-09T11:49:55;20.90;99.90
17986;DHT22;9118;48.122;11.546;2022-09-09T11:52:37;20.50;99.90
17986;DHT22;9118;48.122;11.546;2022-09-09T11:55:20;20.50;99.90
17986;DHT22;9118;48.122;11.546;2022-09-09T11:57:58;20.30;99.90
17986;DHT22;9118;48.122;11.546;2022-09-09T12:00:44;20.20;99.90
17986;DHT22;9118;48.122;11.546;2022-09-09T12:03:38;20.30;99.90
17986;DHT22;9118;48.122;11.546;2022-09-09T12:06:15;20.50;99.90
17986;DHT22;9118;48.122;11.546;2022-09-09T12:09:16;20.60;99.90
17986;DHT22;9118;48.122;11.546;2022-09-09T12:12:05;20.60;99.90
17986;DHT22;9118;48.122;11.546;2022-09-09T12:14:37;20.80;99.90
17986;DHT22;9118;48.122;11.546;2022-09-09T12:17:19;20.90;99.90
17986;DHT22;9118;48.122;11.546;2022-09-09T12:19:47;20.80;99.90
17986;DHT22;9118;48.122;11.546;2022-09-09T12:22:22;21.10;99.90
17986;DHT22;9118;48.122;11.546;2022-09-09T12:25:17;21.20;99.90
17986;DHT22;9118;48.122;11.546;2022-09-09T12:27:59;21.40;99.90
17986;DHT22;9118;48.122;11.546;2022-09-09T12:30:37;21.30;99.90
17986;DHT22;9118;48.122;11.546;2022-09-09T12:33:11;21.50;99.90
17986;DHT22;9118;48.122;11.546;2022-09-09T12:35:45;21.40;99.90
17986;DHT22;9118;48.122;11.546;2022-09-09T12:38:19;21.60;99.90
17986;DHT22;9118;48.122;11.546;2022-09-09T12:40:55;21.70;99.90
17986;DHT22;9118;48.122;11.546;2022-09-09T12:43:26;21.70;99.90
17986;DHT22;9118;48.122;11.546;2022-09-09T12:45:57;21.60;99.90
17986;DHT22;9118;48.122;11.546;2022-09-09T12:48:32;21.60;99.90
17986;DHT22;9118;48.122;11.546;2022-09-09T12:51:00;21.80;99.90
17986;DHT22;9118;48.122;11.546;2022-09-09T12:53:31;21.90;99.90
17986;DHT22;9118;48.122;11.546;2022-09-09T12:56:02;21.80;99.90
17986;DHT22;9118;48.122;11.546;2022-09-09T12:58:32;21.60;99.90
17986;DHT22;9118;48.122;11.546;2022-09-09T13:01:03;21.60;99.90
17986;DHT22;9118;48.122;11.546;2022-09-09T13:03:32;21.80;99.90
17986;DHT22;9118;48.122;11.546;2022-09-09T13:06:11;21.50;99.90
17986;DHT22;9118;48.122;11.546;2022-09-09T13:08:48;21.60;99.90
17986;DHT22;9118;48.122;11.546;2022-09-09T13:11:18;21.50;99.90
17986;DHT22;9118;48.122;11.546;2022-09-09T13:14:01;21.40;99.90
17986;DHT22;9118;48.122;11.546;2022-09-09T13:16:42;21.30;99.90
17986;DHT22;9118;48.122;11.546;2022-09-09T13:19:23;21.50;99.90
17986;DHT22;9118;48.122;11.546;2022-09-09T13:22:00;21.40;99.90
17986;DHT22;9118;48.122;11.546;2022-09-09T13:25:02;21.70;99.90
17986;DHT22;9118;48.122;11.546;2022-09-09T13:27:39;21.70;99.90
17986;DHT22;9118;48.122;11.546;2022-09-09T13:30:30;21.70;99.90
17986;DHT22;9118;48.122;11.546;2022-09-09T13:33:05;21.70;99.90
17986;DHT22;9118;48.122;11.546;2022-09-09T13:35:51;22.00;99.90
17986;DHT22;9118;48.122;11.546;2022-09-09T13:38:23;20.90;99.90
17986;DHT22;9118;48.122;11.546;2022-09-09T13:41:06;21.40;99.90
17986;DHT22;9118;48.122;11.546;2022-09-09T13:43:43;21.80;99.90
17986;DHT22;9118;48.122;11.546;2022-09-09T13:56:26;21.40;99.90
17986;DHT22;9118;48.122;11.546;2022-09-09T13:58:54;20.90;99.90
17986;DHT22;9118;48.122;11.546;2022-09-09T14:01:36;20.40;99.90
17986;DHT22;9118;48.122;11.546;2022-09-09T14:04:26;20.40;99.90
17986;DHT22;9118;48.122;11.546;2022-09-09T14:06:55;20.30;99.90
17986;DHT22;9118;48.122;11.546;2022-09-09T14:09:36;19.40;99.90
17986;DHT22;9118;48.122;11.546;2022-09-09T14:12:14;20.30;99.90
17986;DHT22;9118;48.122;11.546;2022-09-09T14:18:25;19.60;99.90
17986;DHT22;9118;48.122;11.546;2022-09-09T14:21:15;20.40;99.90
17986;DHT22;9118;48.122;11.546;2022-09-09T14:23:43;20.40;99.90
17986;DHT22;9118;48.122;11.546;2022-09-09T14:26:25;20.60;99.90
17986;DHT22;9118;48.122;11.546;2022-09-09T14:28:56;21.20;99.90
17986;DHT22;9118;48.122;11.546;2022-09-09T14:31:24;20.30;99.90
17986;DHT22;9118;48.122;11.546;2022-09-09T14:33:52;20.40;99.90
17986;DHT22;9118;48.122;11.546;2022-09-09T14:36:28;20.20;99.90
17986;DHT22;9118;48.122;11.546;2022-09-09T14:39:04;20.30;99.90
17986;DHT22;9118;48.122;11.546;2022-09-09T14:41:34;20.00;99.90
17986;DHT22;9118;48.122;11.546;2022-09-09T14:44:45;19.90;99.90
17986;DHT22;9118;48.122;11.546;2022-09-09T14:47:48;19.80;99.90
17986;DHT22;9118;48.122;11.546;2022-09-09T14:50:19;19.60;99.90
17986;DHT22;9118;48.122;11.546;2022-09-09T14:52:46;19.60;99.90
17986;DHT22;9118;48.122;11.546;2022-09-09T14:55:14;19.70;99.90
17986;DHT22;9118;48.122;11.546;2022-09-09T14:57:55;19.80;99.90
17986;DHT22;9118;48.122;11.546;2022-09-09T15:00:28;19.90;99.90
17986;DHT22;9118;48.122;11.546;2022-09-09T15:02:59;19.60;99.90
17986;DHT22;9118;48.122;11.546;2022-09-09T15:05:38;19.70;99.90
17986;DHT22;9118;48.122;11.546;2022-09-09T15:08:09;19.50;99.90
17986;DHT22;9118;48.122;11.546;2022-09-09T15:10:43;19.50;99.90
17986;DHT22;9118;48.122;11.546;2022-09-09T15:13:25;19.60;99.90
17986;DHT22;9118;48.122;11.546;2022-09-09T15:16:03;22.00;99.90
17986;DHT22;9118;48.122;11.546;2022-09-09T15:18:34;19.40;99.90
17986;DHT22;9118;48.122;11.546;2022-09-09T15:21:06;19.60;99.90
17986;DHT22;9118;48.122;11.546;2022-09-09T15:23:34;19.60;99.90
17986;DHT22;9118;48.122;11.546;2022-09-09T15:26:03;20.50;99.90
17986;DHT22;9118;48.122;11.546;2022-09-09T15:28:36;19.70;99.90
17986;DHT22;9118;48.122;11.546;2022-09-09T15:31:19;19.70;99.90
17986;DHT22;9118;48.122;11.546;2022-09-09T15:34:05;19.70;99.90
17986;DHT22;9118;48.122;11.546;2022-09-09T15:36:35;19.60;99.90
17986;DHT22;9118;48.122;11.546;2022-09-09T15:39:17;19.60;99.90
17986;DHT22;9118;48.122;11.546;2022-09-09T15:41:48;21.10;99.90
17986;DHT22;9118;48.122;11.546;2022-09-09T15:44:17;19.70;99.90
17986;DHT22;9118;48.122;11.546;2022-09-09T15:49:59;24.60;99.90
17986;DHT22;9118;48.122;11.546;2022-09-09T15:52:51;29.50;99.90
17986;DHT22;9118;48.122;11.546;2022-09-09T15:57:03;32.50;99.90
17986;DHT22;9118;48.122;11.546;2022-09-09T15:59:15;30.60;99.90
17986;DHT22;9118;48.122;11.546;2022-09-09T16:02:15;26.30;99.90
17986;DHT22;9118;48.122;11.546;2022-09-09T16:05:00;24.50;99.90
17986;DHT22;9118;48.122;11.546;2022-09-09T16:07:33;22.70;99.90
17986;DHT22;9118;48.122;11.546;2022-09-09T16:10:18;21.80;99.90
17986;DHT22;9118;48.122;11.546;2022-09-09T16:12:59;21.20;99.90
17986;DHT22;9118;48.122;11.546;2022-09-09T16:15:41;20.70;99.90
17986;DHT22;9118;48.122;11.546;2022-09-09T16:18:17;20.40;99.90
17986;DHT22;9118;48.122;11.546;2022-09-09T16:20:53;20.40;99.90
17986;DHT22;9118;48.122;11.546;2022-09-09T16:23:21;22.60;99.90
17986;DHT22;9118;48.122;11.546;2022-09-09T16:25:53;20.80;99.90
17986;DHT22;9118;48.122;11.546;2022-09-09T16:28:21;21.00;99.90
17986;DHT22;9118;48.122;11.546;2022-09-09T16:30:49;20.40;99.90
17986;DHT22;9118;48.122;11.546;2022-09-09T16:33:17;21.00;99.90
17986;DHT22;9118;48.122;11.546;2022-09-09T16:35:46;20.50;99.90
17986;DHT22;9118;48.122;11.546;2022-09-09T16:38:13;20.30;99.90
17986;DHT22;9118;48.122;11.546;2022-09-09T16:40:42;20.20;99.90
17986;DHT22;9118;48.122;11.546;2022-09-09T16:43:10;20.10;99.90
17986;DHT22;9118;48.122;11.546;2022-09-09T16:45:51;17.70;99.90